Time;durP1;ratioP1;P1;durP2;ratioP2;P2;SDS_P1;SDS_P2;PMS_P1;PMS_P2;Temp;Humidity;BMP_temperature;BMP_pressure;BME280_temperature;BME280_humidity;BME280_pressure;Samples;Min_cycle;Max_cycle;Signal;HPM_P1;HPM_P2
2024/01/15 00:00:13;;;;;;;0.00;0.00;;;;;;;-1.86;96.07;145805.22;4910992;28;20262;-64
2024/01/15 00:02:40;;;;;;;0.00;0.00;;;;;;;-1.86;95.78;145806.50;4924317;28;20568;-65
2024/01/15 00:05:10;;;;;;;0.00;0.00;;;;;;;-1.91;95.04;145794.13;4918201;28;20225;-65
2024/01/15 00:07:36;;;;;;;0.00;0.00;;;;;;;-1.94;95.92;145787.94;4922884;28;20233;-65
2024/01/15 00:10:03;;;;;;;0.00;0.00;;;;;;;-1.95;96.23;145785.47;4921837;29;20233;-65
2024/01/15 00:12:30;;;;;;;0.00;0.00;;;;;;;-1.89;96.64;145797.81;4919034;28;20245;-65
2024/01/15 00:14:58;;;;;;;0.00;0.00;;;;;;;-1.89;97.20;145797.81;4915524;28;20735;-65
2024/01/15 00:17:25;;;;;;;0.00;0.00;;;;;;;-1.91;96.57;145792.88;4935555;28;20665;-65
2024/01/15 00:19:52;;;;;;;0.03;0.03;;;;;;;-1.88;96.70;145801.56;4919153;28;20226;-65
2024/01/15 00:22:19;;;;;;;0.00;0.00;;;;;;;-1.86;96.32;145805.22;4921079;29;20263;-66
2024/01/15 00:24:46;;;;;;;0.00;0.00;;;;;;;-1.85;95.82;145807.69;4921514;28;20241;-66
2024/01/15 00:27:12;;;;;;;0.00;0.00;;;;;;;-1.88;97.16;145801.56;4918454;28;20572;-65
2024/01/15 00:29:39;;;;;;;0.00;0.00;;;;;;;-1.87;97.19;145804.03;4919401;28;20233;-60
2024/01/15 00:32:07;;;;;;;0.00;0.00;;;;;;;-1.85;97.73;145808.97;4918567;28;20233;-66
2024/01/15 00:34:34;;;;;;;0.00;0.00;;;;;;;-1.83;96.43;145812.63;4922968;28;20241;-66
2024/01/15 00:37:00;;;;;;;0.00;0.00;;;;;;;-1.87;97.55;145804.03;4917962;28;20254;-66
2024/01/15 00:39:27;;;;;;;0.00;0.00;;;;;;;-1.84;96.41;145810.16;4922479;28;20226;-66
2024/01/15 00:41:54;;;;;;;0.00;0.00;;;;;;;-1.90;96.28;145796.63;4921097;28;20237;-66
2024/01/15 00:44:20;;;;;;;0.00;0.00;;;;;;;-1.87;96.79;145802.75;4923714;28;20226;-67
2024/01/15 00:46:47;;;;;;;0.00;0.00;;;;;;;-1.86;97.75;145805.22;4920798;28;20230;-65
2024/01/15 00:49:15;;;;;;;0.00;0.00;;;;;;;-1.81;96.83;145818.84;4921159;28;20240;-64
2024/01/15 00:51:41;;;;;;;0.00;0.00;;;;;;;-1.84;97.57;145810.16;4923863;28;20233;-64
2024/01/15 00:54:08;;;;;;;0.00;0.00;;;;;;;-1.87;97.55;145802.75;4920908;28;20234;-64
2024/01/15 00:56:35;;;;;;;0.00;0.00;;;;;;;-1.86;97.59;145806.50;4923232;28;20271;-64
2024/01/15 00:59:01;;;;;;;0.00;0.00;;;;;;;-1.78;96.70;145824.97;4921030;28;20225;-64
2024/01/15 01:01:28;;;;;;;0.00;0.00;;;;;;;-1.82;96.47;145816.38;4924720;28;20234;-64
2024/01/15 01:03:55;;;;;;;0.00;0.00;;;;;;;-1.77;96.12;145827.44;4908397;28;20252;-66
2024/01/15 01:06:23;;;;;;;0.00;0.00;;;;;;;-1.89;96.79;145799.09;4912944;28;20238;-66
2024/01/15 01:08:49;;;;;;;0.00;0.00;;;;;;;-1.80;97.05;145820.03;4917547;28;20253;-66
2024/01/15 01:11:16;;;;;;;0.00;0.00;;;;;;;-1.79;96.83;145822.50;4919553;28;20239;-66
2024/01/15 01:13:46;;;;;;;0.00;0.00;;;;;;;-1.75;96.85;145832.38;4935357;28;20248;-65
2024/01/15 01:16:13;;;;;;;0.00;0.00;;;;;;;-1.83;96.86;145812.63;4915882;28;20227;-65
2024/01/15 01:18:40;;;;;;;0.00;0.00;;;;;;;-1.84;96.64;145810.16;4924104;29;20227;-65
2024/01/15 01:21:06;;;;;;;0.00;0.00;;;;;;;-1.86;96.07;145805.22;4919618;28;20252;-65
2024/01/15 01:23:34;;;;;;;0.00;0.00;;;;;;;-1.89;97.03;145797.81;4920210;28;20235;-65
2024/01/15 01:26:01;;;;;;;0.00;0.00;;;;;;;-1.90;96.76;145795.34;4920830;28;20226;-65
2024/01/15 01:28:28;;;;;;;0.00;0.00;;;;;;;-1.90;96.63;145795.34;4923355;28;20235;-65
2024/01/15 01:30:55;;;;;;;0.00;0.00;;;;;;;-1.97;96.02;145780.53;4918675;28;20231;-65
2024/01/15 01:33:21;;;;;;;0.00;0.00;;;;;;;-2.04;97.02;145762.06;4921369;28;20734;-65
2024/01/15 01:35:48;;;;;;;0.00;0.00;;;;;;;-2.08;98.38;145753.38;4919027;29;20277;-65
2024/01/15 01:38:15;;;;;;;0.00;0.00;;;;;;;-2.05;98.45;145760.78;4920111;28;20320;-65
2024/01/15 01:40:43;;;;;;;0.00;0.00;;;;;;;-2.11;99.02;145747.25;4921853;28;20296;-65
2024/01/15 01:43:10;;;;;;;0.00;0.00;;;;;;;-2.09;99.20;145750.91;4915501;28;20263;-65
2024/01/15 01:45:37;;;;;;;0.00;0.00;;;;;;;-2.08;99.39;145753.38;4921141;28;20232;-65
2024/01/15 01:48:04;;;;;;;0.00;0.00;;;;;;;-2.04;99.24;145762.06;4918597;28;20223;-66
2024/01/15 01:50:32;;;;;;;0.00;0.00;;;;;;;-2.03;98.78;145764.53;4920949;29;20357;-65
2024/01/15 01:52:59;;;;;;;0.00;0.00;;;;;;;-2.01;99.47;145770.66;4916447;29;20242;-65
2024/01/15 01:55:28;;;;;;;0.00;0.00;;;;;;;-2.00;99.99;145771.94;4919697;28;20239;-65
2024/01/15 01:57:57;;;;;;;0.00;0.00;;;;;;;-1.98;99.27;145778.06;4918290;28;20241;-65
2024/01/15 02:00:24;;;;;;;0.00;0.00;;;;;;;-1.95;99.73;145785.47;4923224;28;20595;-65
2024/01/15 02:02:50;;;;;;;0.00;0.00;;;;;;;-1.92;99.08;145791.69;4917562;29;20237;-65
2024/01/15 02:05:20;;;;;;;0.00;0.00;;;;;;;-1.89;98.52;145799.09;4919263;28;20266;-65
2024/01/15 02:07:46;;;;;;;0.00;0.00;;;;;;;-1.92;98.54;145791.69;4922113;28;20285;-65
2024/01/15 02:10:13;;;;;;;0.00;0.00;;;;;;;-1.94;99.41;145786.75;4915255;28;20248;-63
2024/01/15 02:12:40;;;;;;;0.00;0.00;;;;;;;-1.84;99.25;145810.16;4920213;29;20238;-64
2024/01/15 02:15:08;;;;;;;0.00;0.00;;;;;;;-1.84;99.54;145811.44;4916920;28;20236;-64
2024/01/15 02:17:35;;;;;;;0.00;0.00;;;;;;;-1.84;99.84;145810.16;4921317;28;20231;-64
2024/01/15 02:20:02;;;;;;;0.00;0.00;;;;;;;-1.81;98.97;145818.84;4917282;28;20745;-64
2024/01/15 02:22:28;;;;;;;0.00;0.00;;;;;;;-1.87;99.67;145804.03;4920440;29;20365;-64
2024/01/15 02:24:56;;;;;;;0.00;0.00;;;;;;;-1.87;100.00;145804.03;4914272;28;20231;-64
2024/01/15 02:27:23;;;;;;;0.00;0.00;;;;;;;-1.86;99.92;145806.50;4919539;28;20552;-64
2024/01/15 02:29:50;;;;;;;0.00;0.00;;;;;;;-1.84;100.00;145811.44;4919720;28;21198;-64
2024/01/15 02:32:16;;;;;;;0.00;0.00;;;;;;;-1.81;100.00;145817.56;4919196;29;20246;-64
2024/01/15 02:34:43;;;;;;;0.00;0.00;;;;;;;-1.81;100.00;145817.56;4924853;28;20242;-64
2024/01/15 02:37:10;;;;;;;0.00;0.00;;;;;;;-1.77;100.00;145826.25;4922292;29;20709;-65
2024/01/15 02:39:36;;;;;;;0.00;0.00;;;;;;;-1.80;100.00;145821.31;4923109;28;20234;-64
2024/01/15 02:42:05;;;;;;;0.00;0.00;;;;;;;-1.77;100.00;145826.25;4919848;28;20231;-64
2024/01/15 02:44:30;;;;;;;0.00;0.00;;;;;;;-1.83;100.00;145813.91;4923412;28;20567;-64
2024/01/15 02:46:57;;;;;;;0.00;0.00;;;;;;;-1.81;100.00;145817.56;4921692;28;20229;-64
2024/01/15 02:49:23;;;;;;;0.00;0.00;;;;;;;-1.75;100.00;145832.38;4926898;29;20242;-64
2024/01/15 02:51:50;;;;;;;0.00;0.00;;;;;;;-1.71;100.00;145841.06;4922428;28;20231;-64
2024/01/15 02:54:16;;;;;;;0.03;0.03;;;;;;;-1.69;100.00;145846.00;4925215;28;20238;-64
2024/01/15 02:56:43;;;;;;;0.00;0.00;;;;;;;-1.64;100.00;145858.34;4923790;29;20614;-64
2024/01/15 02:59:11;;;;;;;0.00;0.00;;;;;;;-1.69;100.00;145846.00;4918618;28;20250;-64
2024/01/15 03:01:38;;;;;;;0.00;0.00;;;;;;;-1.67;100.00;145850.94;4921401;29;20608;-64
2024/01/15 03:04:04;;;;;;;0.00;0.00;;;;;;;-1.67;100.00;145850.94;4920534;28;20234;-64
2024/01/15 03:06:31;;;;;;;0.00;0.00;;;;;;;-1.66;100.00;145853.41;4923905;28;20249;-64
2024/01/15 03:08:58;;;;;;;0.00;0.00;;;;;;;-1.60;100.00;145866.97;4922491;28;20236;-64
2024/01/15 03:11:24;;;;;;;0.00;0.00;;;;;;;-1.61;100.00;145864.50;4922592;28;20245;-64
2024/01/15 03:13:51;;;;;;;0.00;0.00;;;;;;;-1.61;100.00;145865.75;4915789;28;20246;-64
2024/01/15 03:16:20;;;;;;;0.00;0.00;;;;;;;-1.53;100.00;145884.25;4921906;28;20297;-64
2024/01/15 03:18:47;;;;;;;0.00;0.00;;;;;;;-1.60;100.00;145866.97;4928178;29;20277;-64
2024/01/15 03:21:13;;;;;;;0.00;0.00;;;;;;;-1.59;100.00;145869.44;4919745;28;20227;-64
2024/01/15 03:23:40;;;;;;;0.00;0.00;;;;;;;-1.55;100.00;145880.50;4923460;28;20250;-64
2024/01/15 03:26:07;;;;;;;0.00;0.00;;;;;;;-1.54;100.00;145881.78;4921215;28;20723;-64
2024/01/15 03:28:33;;;;;;;0.00;0.00;;;;;;;-1.55;100.00;145879.31;4923854;29;20235;-64
2024/01/15 03:31:00;;;;;;;0.00;0.00;;;;;;;-1.55;100.00;145880.50;4921744;29;20551;-64
2024/01/15 03:33:28;;;;;;;0.00;0.00;;;;;;;-1.43;100.00;145908.94;4922683;29;20242;-64
2024/01/15 03:35:54;;;;;;;0.00;0.00;;;;;;;-1.47;100.00;145899.06;4917443;29;20233;-64
2024/01/15 03:38:21;;;;;;;0.00;0.00;;;;;;;-1.41;100.00;145913.88;4924565;28;20281;-64
2024/01/15 03:40:47;;;;;;;0.00;0.00;;;;;;;-1.46;100.00;145900.28;4922028;29;20231;-64
2024/01/15 03:43:14;;;;;;;0.00;0.00;;;;;;;-1.48;100.00;145897.81;4918575;28;20248;-65
2024/01/15 03:45:41;;;;;;;0.00;0.00;;;;;;;-1.45;100.00;145902.75;4920912;28;20245;-64
2024/01/15 03:48:07;;;;;;;0.00;0.00;;;;;;;-1.48;100.00;145897.81;4919733;28;20230;-64
2024/01/15 03:50:35;;;;;;;0.00;0.00;;;;;;;-1.52;100.00;145887.91;4924288;28;20241;-64
2024/01/15 03:53:02;;;;;;;0.00;0.00;;;;;;;-1.49;100.00;145894.13;4919903;28;20225;-64
2024/01/15 03:55:28;;;;;;;0.00;0.00;;;;;;;-1.48;100.00;145896.59;4921787;28;20234;-64
2024/01/15 03:57:55;;;;;;;0.00;0.00;;;;;;;-1.48;100.00;145897.81;4918336;28;20241;-64
2024/01/15 04:03:51;;;;;;;0.00;0.00;;;;;;;-1.44;100.00;145906.47;5557409;23;20221;-65
2024/01/15 04:06:19;;;;;;;0.00;0.00;;;;;;;-1.46;100.00;145901.53;4952598;28;20236;-65
2024/01/15 04:08:47;;;;;;;0.00;0.00;;;;;;;-1.47;100.00;145899.06;4951489;28;20685;-65
2024/01/15 04:11:13;;;;;;;0.00;0.00;;;;;;;-1.44;100.00;145906.47;4958266;28;20233;-65
2024/01/15 04:13:40;;;;;;;0.00;0.00;;;;;;;-1.46;100.00;145901.53;4952043;28;20233;-65
2024/01/15 04:16:06;;;;;;;0.00;0.00;;;;;;;-1.44;100.00;145905.22;4936235;28;20225;-65
2024/01/15 04:18:33;;;;;;;0.00;0.00;;;;;;;-1.41;100.00;145912.63;4940166;28;20231;-65
2024/01/15 04:21:00;;;;;;;0.00;0.00;;;;;;;-1.35;100.00;145928.69;4937194;28;20230;-65
2024/01/15 04:23:28;;;;;;;0.00;0.00;;;;;;;-1.36;100.00;145926.22;4939446;28;20245;-65
2024/01/15 04:25:54;;;;;;;0.00;0.00;;;;;;;-1.31;100.00;145936.09;4938582;28;20326;-65
2024/01/15 04:28:21;;;;;;;0.00;0.00;;;;;;;-1.27;100.00;145946.00;4942498;28;20221;-65
2024/01/15 04:30:47;;;;;;;0.00;0.00;;;;;;;-1.23;100.00;145957.06;5137631;23;20248;-65
2024/01/15 04:33:14;;;;;;;0.00;0.00;;;;;;;-1.23;100.00;145957.06;4930034;28;20234;-65
2024/01/15 04:35:41;;;;;;;0.00;0.00;;;;;;;-1.21;100.00;145962.03;4932500;28;20234;-65
2024/01/15 04:38:07;;;;;;;0.00;0.00;;;;;;;-1.20;100.00;145963.28;4930386;28;20214;-65
2024/01/15 04:40:35;;;;;;;0.00;0.00;;;;;;;-1.16;100.00;145973.16;4932714;28;20237;-65
2024/01/15 04:43:02;;;;;;;0.00;0.00;;;;;;;-1.10;100.00;145986.72;4912806;29;20236;-65
2024/01/15 04:45:29;;;;;;;0.00;0.00;;;;;;;-1.14;100.00;145976.84;4910659;28;20242;-65
2024/01/15 04:47:57;;;;;;;0.00;0.00;;;;;;;-1.11;99.88;145984.25;4909531;29;20245;-65
2024/01/15 04:50:24;;;;;;;0.00;0.00;;;;;;;-1.10;100.00;145987.97;4912929;29;20705;-65
2024/01/15 04:52:51;;;;;;;0.00;0.00;;;;;;;-1.09;99.20;145990.44;4908773;29;20237;-65
2024/01/15 04:55:17;;;;;;;0.00;0.00;;;;;;;-1.12;100.00;145981.78;4905020;29;20245;-65
2024/01/15 04:57:45;;;;;;;0.00;0.00;;;;;;;-1.13;100.00;145979.31;4906531;29;20237;-65
2024/01/15 05:00:13;;;;;;;0.00;0.00;;;;;;;-1.11;100.00;145984.25;4909881;29;20247;-65
2024/01/15 05:02:40;;;;;;;0.00;0.00;;;;;;;-1.14;100.00;145978.09;4910657;29;20243;-65
2024/01/15 05:05:07;;;;;;;0.00;0.00;;;;;;;-1.13;100.00;145979.31;4907069;29;20226;-65
2024/01/15 05:07:33;;;;;;;0.00;0.00;;;;;;;-1.15;99.76;145975.63;4910930;29;20600;-65
2024/01/15 05:10:00;;;;;;;0.00;0.00;;;;;;;-1.16;99.79;145973.16;4908775;29;20230;-65
2024/01/15 05:12:29;;;;;;;0.00;0.00;;;;;;;-1.11;99.47;145985.50;4916245;29;20259;-65
2024/01/15 05:14:57;;;;;;;0.00;0.00;;;;;;;-1.14;99.34;145978.09;4905774;29;20226;-65
2024/01/15 05:17:24;;;;;;;0.00;0.00;;;;;;;-1.14;99.83;145978.09;4916518;29;20230;-65
2024/01/15 05:19:50;;;;;;;0.00;0.00;;;;;;;-1.12;98.86;145983.03;4906409;29;20239;-65
2024/01/15 05:22:17;;;;;;;0.00;0.00;;;;;;;-1.10;98.82;145987.97;4919772;29;20246;-65
2024/01/15 05:24:43;;;;;;;0.00;0.00;;;;;;;-1.11;97.52;145984.25;4911619;29;20330;-65
2024/01/15 05:27:10;;;;;;;0.00;0.00;;;;;;;-1.08;96.16;145991.66;4911349;29;20241;-65
2024/01/15 05:29:36;;;;;;;0.00;0.00;;;;;;;-1.06;95.98;145996.59;4909976;29;20750;-65
2024/01/15 05:32:05;;;;;;;0.00;0.00;;;;;;;-1.03;96.51;146004.00;4911300;29;20233;-65
2024/01/15 05:34:31;;;;;;;0.00;0.00;;;;;;;-1.03;96.46;146004.00;4913945;29;20230;-65
2024/01/15 05:36:58;;;;;;;0.00;0.00;;;;;;;-1.00;95.56;146010.16;4909213;29;20246;-65
2024/01/15 05:39:24;;;;;;;0.00;0.00;;;;;;;-0.99;95.06;146013.91;4911736;29;20750;-65
2024/01/15 05:41:51;;;;;;;0.00;0.00;;;;;;;-1.01;95.13;146008.97;4910492;29;20226;-65
2024/01/15 05:44:18;;;;;;;0.00;0.00;;;;;;;-0.94;94.56;146025.00;4910020;29;20243;-65
2024/01/15 05:46:44;;;;;;;0.00;0.00;;;;;;;-0.96;94.58;146021.31;4910505;29;20259;-65
2024/01/15 05:49:12;;;;;;;0.00;0.00;;;;;;;-0.88;93.13;146038.59;4908762;29;20239;-65
2024/01/15 05:51:39;;;;;;;0.00;0.00;;;;;;;-0.87;92.67;146042.28;4912145;29;20243;-64
2024/01/15 05:54:05;;;;;;;0.00;0.00;;;;;;;-0.87;92.13;146042.28;4906943;29;20556;-64
2024/01/15 05:56:32;;;;;;;0.03;0.03;;;;;;;-0.82;91.76;146053.44;4911267;29;20254;-65
2024/01/15 05:58:59;;;;;;;0.00;0.00;;;;;;;-0.82;91.20;146053.44;4906777;29;20238;-65
2024/01/15 06:01:28;;;;;;;0.00;0.00;;;;;;;-0.78;89.56;146064.53;4909943;29;20252;-64
2024/01/15 06:03:55;;;;;;;0.00;0.00;;;;;;;-0.79;89.85;146060.84;4913533;29;20573;-64
2024/01/15 06:06:23;;;;;;;0.00;0.00;;;;;;;-0.86;90.70;146044.75;4915641;29;20246;-64
2024/01/15 06:08:49;;;;;;;0.00;0.00;;;;;;;-0.84;89.57;146048.50;4911560;29;20250;-64
2024/01/15 06:11:16;;;;;;;0.00;0.00;;;;;;;-0.82;89.63;146053.44;4916371;29;20239;-64
2024/01/15 06:13:46;;;;;;;0.00;0.00;;;;;;;-0.85;88.69;146047.22;4899925;29;20258;-65
2024/01/15 06:16:15;;;;;;;0.00;0.00;;;;;;;-0.78;87.97;146063.31;4905561;29;20287;-65
2024/01/15 06:18:44;;;;;;;0.00;0.00;;;;;;;-0.73;88.42;146075.66;4907945;29;20780;-65
2024/01/15 06:21:12;;;;;;;0.00;0.00;;;;;;;-0.73;88.48;146074.41;4907995;29;20247;-65
2024/01/15 06:23:40;;;;;;;0.00;0.00;;;;;;;-0.71;88.21;146080.59;4908162;29;20231;-65
2024/01/15 06:26:13;;;;;;;0.00;0.00;;;;;;;-0.73;88.41;146075.66;4909988;29;20263;-65
2024/01/15 06:28:40;;;;;;;0.00;0.00;;;;;;;-0.73;87.02;146074.41;4901783;29;20247;-65
2024/01/15 06:31:07;;;;;;;0.00;0.00;;;;;;;-0.73;87.62;146075.66;4906212;29;20244;-65
2024/01/15 06:33:34;;;;;;;0.00;0.00;;;;;;;-0.71;87.33;146079.34;4912923;29;20267;-65
2024/01/15 06:36:00;;;;;;;0.00;0.00;;;;;;;-0.73;86.17;146074.41;4913557;29;20226;-65
2024/01/15 06:38:27;;;;;;;0.00;0.00;;;;;;;-0.73;85.97;146074.41;4912448;29;20260;-65
2024/01/15 06:40:55;;;;;;;0.00;0.00;;;;;;;-0.71;86.24;146079.34;4907270;29;20239;-65
2024/01/15 06:43:22;;;;;;;0.00;0.00;;;;;;;-0.70;84.95;146083.09;4910061;29;20235;-65
2024/01/15 06:45:48;;;;;;;0.00;0.00;;;;;;;-0.70;85.56;146083.09;4909100;29;20246;-65
2024/01/15 06:48:16;;;;;;;0.00;0.00;;;;;;;-0.68;85.74;146086.75;4906161;29;20238;-65
2024/01/15 06:50:43;;;;;;;0.00;0.00;;;;;;;-0.67;84.61;146089.22;4906844;29;20271;-65
2024/01/15 06:53:09;;;;;;;0.00;0.00;;;;;;;-0.61;85.01;146105.31;4905941;29;20222;-65
2024/01/15 06:55:36;;;;;;;0.00;0.00;;;;;;;-0.63;85.12;146099.13;4911031;29;20231;-65
2024/01/15 06:58:04;;;;;;;0.00;0.00;;;;;;;-0.63;85.03;146099.13;4901258;29;20228;-65
2024/01/15 07:00:31;;;;;;;0.00;0.00;;;;;;;-0.58;84.75;146110.25;4908918;29;20590;-64
2024/01/15 07:02:57;;;;;;;0.00;0.00;;;;;;;-0.54;84.58;146121.34;4906821;29;20239;-63
2024/01/15 07:05:24;;;;;;;0.00;0.00;;;;;;;-0.50;83.51;146131.25;4905591;29;20255;-63
2024/01/15 07:07:51;;;;;;;0.00;0.00;;;;;;;-0.46;83.65;146141.13;4910278;29;20219;-63
2024/01/15 07:10:18;;;;;;;0.00;0.00;;;;;;;-0.47;83.32;146138.66;4911094;29;20235;-63
2024/01/15 07:12:45;;;;;;;0.00;0.00;;;;;;;-0.45;82.23;146143.59;4901156;29;20237;-64
2024/01/15 07:15:12;;;;;;;0.00;0.00;;;;;;;-0.44;82.15;146144.81;4905629;29;20705;-64
2024/01/15 07:17:39;;;;;;;0.00;0.00;;;;;;;-0.49;82.09;146133.72;4907578;29;20234;-64
2024/01/15 07:20:08;;;;;;;0.00;0.00;;;;;;;-0.42;82.66;146148.53;4910695;29;20255;-64
2024/01/15 07:22:34;;;;;;;0.03;0.03;;;;;;;-0.41;82.04;146151.00;4909445;29;20239;-64
2024/01/15 07:25:01;;;;;;;0.00;0.00;;;;;;;-0.38;81.91;146159.66;4914921;29;20222;-64
2024/01/15 07:27:28;;;;;;;0.00;0.00;;;;;;;-0.32;80.42;146173.25;4915774;29;20615;-64
2024/01/15 07:29:54;;;;;;;0.00;0.00;;;;;;;-0.32;81.26;146173.25;4909852;29;20232;-64
2024/01/15 07:32:22;;;;;;;0.00;0.00;;;;;;;-0.33;81.45;146172.00;4911904;29;20259;-64
2024/01/15 07:34:49;;;;;;;0.00;0.00;;;;;;;-0.25;80.18;146190.56;4904425;29;20239;-64
2024/01/15 07:37:16;;;;;;;0.00;0.00;;;;;;;-0.24;80.33;146191.78;4905151;29;20304;-64
2024/01/15 07:39:42;;;;;;;0.00;0.00;;;;;;;-0.22;81.22;146197.97;4908567;29;20607;-64
2024/01/15 07:42:09;;;;;;;0.00;0.00;;;;;;;-0.14;80.14;146215.28;4906395;29;20233;-64
2024/01/15 07:44:36;;;;;;;0.00;0.00;;;;;;;-0.11;79.92;146223.91;4908299;28;20226;-65
2024/01/15 07:47:03;;;;;;;0.00;0.00;;;;;;;-0.17;80.30;146210.34;4909626;29;20259;-64
2024/01/15 07:49:31;;;;;;;0.00;0.00;;;;;;;-0.17;81.68;146210.34;4913074;29;20794;-64
2024/01/15 07:51:58;;;;;;;0.00;0.00;;;;;;;-0.21;82.13;146199.19;4907114;29;20316;-64
2024/01/15 07:54:24;;;;;;;0.00;0.00;;;;;;;-0.20;82.49;146202.94;4915009;29;20326;-64
2024/01/15 07:56:55;;;;;;;0.00;0.00;;;;;;;-0.37;85.29;146160.91;4912982;29;20719;-64
2024/01/15 07:59:21;;;;;;;0.00;0.00;;;;;;;-0.43;86.44;146147.28;4911728;29;20236;-64
2024/01/15 08:01:48;;;;;;;0.00;0.00;;;;;;;-0.51;87.53;146127.50;4916275;29;20228;-64
2024/01/15 08:04:15;;;;;;;0.00;0.00;;;;;;;-0.52;87.50;146126.31;4910442;29;20317;-64
2024/01/15 08:06:43;;;;;;;0.00;0.00;;;;;;;-0.58;88.36;146111.47;4913047;29;20242;-64
2024/01/15 08:09:09;;;;;;;0.00;0.00;;;;;;;-0.67;90.19;146089.22;4910060;29;20583;-64
2024/01/15 08:11:36;;;;;;;0.00;0.00;;;;;;;-0.73;90.56;146075.66;4912231;29;20254;-64
2024/01/15 08:14:03;;;;;;;0.00;0.00;;;;;;;-0.79;91.68;146060.84;4910721;29;20227;-64
2024/01/15 08:16:29;;;;;;;0.00;0.00;;;;;;;-0.75;91.83;146070.72;4912175;29;20259;-64
2024/01/15 08:18:56;;;;;;;0.00;0.00;;;;;;;-0.82;92.12;146053.44;4909284;29;20228;-64
2024/01/15 08:21:23;;;;;;;0.00;0.00;;;;;;;-0.79;92.41;146060.84;4911046;29;20227;-64
2024/01/15 08:23:51;;;;;;;0.00;0.00;;;;;;;-0.83;92.64;146050.97;4910023;29;20242;-64
2024/01/15 08:26:18;;;;;;;0.00;0.00;;;;;;;-0.89;93.36;146037.34;4906736;29;20235;-64
2024/01/15 08:28:47;;;;;;;0.00;0.00;;;;;;;-0.89;93.53;146037.34;4912625;29;20235;-64
2024/01/15 08:31:13;;;;;;;0.00;0.00;;;;;;;-0.89;94.78;146037.34;4908580;29;20723;-64
2024/01/15 08:33:40;;;;;;;0.00;0.00;;;;;;;-0.80;94.59;146058.38;4911725;29;20243;-64
2024/01/15 08:36:07;;;;;;;0.00;0.00;;;;;;;-0.71;94.71;146080.59;4912338;29;20594;-64
2024/01/15 08:38:33;;;;;;;0.00;0.00;;;;;;;-0.56;93.04;146116.41;4911331;29;20228;-64
2024/01/15 08:41:01;;;;;;;0.00;0.00;;;;;;;-0.63;93.87;146099.13;4908253;29;20235;-64
2024/01/15 08:43:28;;;;;;;0.00;0.00;;;;;;;-0.52;92.49;146126.31;4912774;29;20246;-64
2024/01/15 08:45:54;;;;;;;0.00;0.00;;;;;;;-0.56;93.35;146116.41;4914515;29;20243;-64
2024/01/15 08:48:21;;;;;;;0.00;0.00;;;;;;;-0.48;93.02;146136.19;4907071;29;20297;-64
2024/01/15 08:50:48;;;;;;;0.00;0.00;;;;;;;-0.52;93.28;146126.31;4908852;29;20247;-64
2024/01/15 08:53:15;;;;;;;0.00;0.00;;;;;;;-0.39;93.10;146155.97;4909786;29;20236;-64
2024/01/15 08:55:43;;;;;;;0.00;0.00;;;;;;;-0.33;92.72;146172.00;4913443;29;20619;-64
2024/01/15 08:58:11;;;;;;;0.00;0.00;;;;;;;-0.35;91.58;146167.06;4914752;29;20657;-64
2024/01/15 09:00:38;;;;;;;0.00;0.00;;;;;;;-0.32;92.01;146173.25;4914739;29;20259;-64
2024/01/15 09:03:05;;;;;;;0.00;0.00;;;;;;;-0.19;91.15;146205.41;4908488;29;20238;-64
2024/01/15 09:05:32;;;;;;;0.00;0.00;;;;;;;-0.13;90.56;146217.75;4913840;29;20243;-64
2024/01/15 09:07:59;;;;;;;0.00;0.00;;;;;;;-0.06;89.92;146235.06;4906921;29;20848;-64
2024/01/15 09:10:25;;;;;;;0.00;0.00;;;;;;;-0.03;90.19;146243.69;4905452;29;20220;-64
2024/01/15 09:12:52;;;;;;;0.00;0.00;;;;;;;-0.05;89.60;146238.75;4908061;29;20239;-64
2024/01/15 09:15:20;;;;;;;0.00;0.00;;;;;;;-0.06;90.82;146236.28;4913491;29;20621;-64
2024/01/15 09:17:47;;;;;;;0.00;0.00;;;;;;;-0.02;91.27;146244.94;4920687;28;20320;-64
2024/01/15 09:20:13;;;;;;;0.00;0.00;;;;;;;0.09;90.18;146270.88;4911156;29;20427;-64
2024/01/15 09:22:41;;;;;;;0.00;0.00;;;;;;;0.05;90.45;146262.22;4906140;29;20232;-64
2024/01/15 09:25:09;;;;;;;0.00;0.00;;;;;;;0.00;91.75;146249.91;4913322;29;20227;-64
2024/01/15 09:27:37;;;;;;;0.00;0.00;;;;;;;-0.07;92.95;146232.59;4912476;28;20239;-64
2024/01/15 09:30:04;;;;;;;0.00;0.00;;;;;;;-0.02;92.94;146244.94;4910602;29;20254;-64
2024/01/15 09:32:33;;;;;;;0.00;0.00;;;;;;;-0.04;92.09;146241.22;4909453;29;20245;-64
2024/01/15 09:34:59;;;;;;;0.00;0.00;;;;;;;-0.08;92.39;146231.34;4908754;29;20627;-64
2024/01/15 09:37:26;;;;;;;0.00;0.00;;;;;;;-0.05;91.52;146238.75;4913492;29;20241;-64
2024/01/15 09:39:55;;;;;;;0.00;0.00;;;;;;;-0.08;92.04;146231.34;4909290;28;20238;-64
2024/01/15 09:42:24;;;;;;;0.00;0.00;;;;;;;-0.11;92.05;146223.91;4912087;29;20253;-64
2024/01/15 09:44:51;;;;;;;0.00;0.00;;;;;;;-0.02;91.08;146244.94;4909577;29;20231;-64
2024/01/15 09:47:20;;;;;;;0.00;0.00;;;;;;;-0.04;90.26;146240.00;4912314;29;20254;-64
2024/01/15 09:49:48;;;;;;;0.00;0.00;;;;;;;0.06;89.26;146264.69;4913293;29;20258;-64
2024/01/15 09:52:17;;;;;;;0.00;0.00;;;;;;;0.11;90.00;146277.06;4908424;29;20239;-64
2024/01/15 09:54:44;;;;;;;0.00;0.00;;;;;;;0.20;90.58;146296.84;4910371;29;20232;-64
2024/01/15 09:57:11;;;;;;;0.00;0.00;;;;;;;0.19;91.17;146295.63;4904143;29;20239;-64
2024/01/15 09:59:39;;;;;;;0.00;0.00;;;;;;;0.20;90.89;146298.09;4909556;29;20714;-64
2024/01/15 10:02:08;;;;;;;0.00;0.00;;;;;;;0.33;91.48;146328.97;4905186;29;20228;-64
2024/01/15 10:04:34;;;;;;;0.00;0.00;;;;;;;0.29;91.85;146319.09;4905498;29;20239;-64
2024/01/15 10:07:03;;;;;;;0.00;0.00;;;;;;;0.22;90.11;146303.03;4904801;29;20235;-64
2024/01/15 10:09:31;;;;;;;0.00;0.00;;;;;;;0.26;89.74;146311.66;4909360;29;20568;-64
2024/01/15 10:11:58;;;;;;;0.00;0.00;;;;;;;0.19;91.78;146295.63;4902472;29;20299;-64
2024/01/15 10:14:25;;;;;;;0.00;0.00;;;;;;;0.12;93.62;146279.53;4913310;29;20240;-64
2024/01/15 10:16:52;;;;;;;0.03;0.03;;;;;;;0.11;94.23;146275.84;4906215;29;20706;-64
2024/01/15 10:19:18;;;;;;;0.00;0.00;;;;;;;0.09;93.65;146272.09;4912475;29;20251;-64
2024/01/15 10:21:46;;;;;;;0.00;0.00;;;;;;;0.09;92.18;146270.88;4914282;29;20254;-64
2024/01/15 10:24:14;;;;;;;0.00;0.00;;;;;;;0.16;92.47;146286.94;4907397;29;20318;-64
2024/01/15 10:26:41;;;;;;;0.00;0.00;;;;;;;0.17;91.36;146289.41;4915698;29;20254;-64
2024/01/15 10:29:08;;;;;;;0.00;0.00;;;;;;;0.20;89.73;146296.84;4908975;29;20227;-64
2024/01/15 10:31:34;;;;;;;0.00;0.00;;;;;;;0.24;91.04;146306.72;4906820;29;20268;-64
2024/01/15 10:34:12;;;;;;;0.00;0.00;;;;;;;0.28;89.29;146316.63;4908073;29;20263;-64
2024/01/15 10:36:41;;;;;;;0.00;0.00;;;;;;;0.22;89.60;146303.03;4906104;29;20627;-64
2024/01/15 10:39:07;;;;;;;0.00;0.00;;;;;;;0.33;88.92;146328.97;4906324;29;20254;-64
2024/01/15 10:41:36;;;;;;;0.00;0.00;;;;;;;0.35;88.12;146332.72;4908576;29;20255;-63
2024/01/15 10:44:02;;;;;;;0.00;0.00;;;;;;;0.31;88.70;146322.81;4894358;29;20280;-63
2024/01/15 10:46:30;;;;;;;0.00;0.00;;;;;;;0.37;86.44;146337.66;4906315;29;20318;-63
2024/01/15 10:48:57;;;;;;;0.00;0.00;;;;;;;0.35;87.85;146332.72;4903056;29;20990;-63
2024/01/15 10:51:25;;;;;;;0.00;0.00;;;;;;;0.37;88.50;146338.88;4909153;29;20254;-64
2024/01/15 10:53:54;;;;;;;0.00;0.00;;;;;;;0.36;88.38;146335.19;4906800;29;20232;-64
2024/01/15 10:56:22;;;;;;;0.00;0.00;;;;;;;0.42;87.94;146350.03;4913310;29;20242;-62
2024/01/15 10:58:51;;;;;;;0.00;0.00;;;;;;;0.47;88.26;146362.38;4911298;29;20227;-63
2024/01/15 11:01:19;;;;;;;0.00;0.00;;;;;;;0.50;89.67;146369.81;4909984;29;20331;-62
2024/01/15 11:03:48;;;;;;;0.00;0.00;;;;;;;0.52;89.67;146373.50;4909970;29;20290;-63
2024/01/15 11:06:21;;;;;;;0.00;0.00;;;;;;;0.40;92.67;146345.06;4910476;29;20234;-63
2024/01/15 11:08:50;;;;;;;0.00;0.00;;;;;;;0.22;93.66;146301.78;4916198;29;20229;-61
2024/01/15 11:11:17;;;;;;;0.00;0.00;;;;;;;0.22;94.45;146301.78;4909456;29;20296;-61
2024/01/15 11:13:50;;;;;;;0.00;0.00;;;;;;;0.10;97.72;146274.56;4911427;29;20226;-61
2024/01/15 11:16:18;;;;;;;0.00;0.00;;;;;;;0.05;100.00;146262.22;4909859;29;20707;-62
2024/01/15 11:19:03;;;;;;;0.00;0.00;;;;;;;0.03;99.48;146256.06;4916319;29;20239;-62
2024/01/15 11:21:30;;;;;;;0.00;0.00;;;;;;;-0.07;100.00;146232.59;4912659;29;20255;-62
2024/01/15 11:23:58;;;;;;;0.00;0.00;;;;;;;-0.03;100.00;146243.69;4915946;29;20230;-62
2024/01/15 11:26:30;;;;;;;0.00;0.00;;;;;;;-0.13;100.00;146217.75;4910789;29;20328;-62